Pasadena, Florida
Current Conditions -  °F | °C
As of 10:53 AM on Tuesday 21 Oct 2014 (Local Time) from KSPG Reporting Station
Clear Clear  
Wind Chill: 78°   Ceiling: Unl
Heat Index: 80°   Visibility: 10mi
Dew Point: 66°   Wind: 8mph
Humidity: 66%   Direction: 30°NNE
Pressure: 29.96"   Gusts: NA
Location:  27.7562°N, 82.7184°W
Report Text: KSPG 211453Z 03007KT 10SM CLR 26/19 A2996 RMK AO2 SLP145 T02560189 50010
Loading
Personal Weather Stations






























Interactive Weather Map
Tropical Storm Tracking
New forecast layout! Learn more

10-Day Weather Forecast

Advertisements
Track Severe Weather on mobile